Hlavní strana
METAR-TAF:

METAR-TAF

Letiště :

Clarksville, Tennessee, Spojené státy americké

zeměpisná šířka: 36-37-19N, zeměpisná délka: 087-24-54W, výška: 168 m

Aktuální stav počasí

Zpráva byla vytvořena před 1 hodinou a 2 minutami, v 09:52 UTC
Severoseverozápadní vítr 10 kt
Teplota 3°C
Vlhkost vzduchu 87%
Tlak 1024 hPa
Viditelnost: 11.3 km
Jasno

METAR: KCKV 250952Z AUTO 34010KT 7SM CLR 03/01 A3024 RMK AO2 SLP241 T00280006

Čas: 04:54 (10:54 UTC)

Předpověď počasí

Zpráva byla vytvořena před 5 hodinami a 34 minutami, v 05:20 UTC
Předpověď platná od 25 v 06 UTC do 26 v 06 UTC
Severní vítr 9 kt s nárazy do 16 kt
Viditelnost: 10 km
Oblačno až skoro zataženo ve výšce 4500 ft
Od 25 v 1700 UTC
Severoseverovýchodní vítr 8 kt
Viditelnost: 10 km
Polojasno ve výšce 15000 ft

TAF: KCKV 250520Z 2506/2606 36009G16KT P6SM BKN045 FM251700 03008KT P6SM SCT150

Stav a předpovědi počasí z více než 4 000 letišť (zprávy METAR a TAF).

Červené a žluté tečky na mapě představují dostupné meteorologické stanice.

Když kurzor umístíte na tečku, zobrazí se název stanice.

Pak kliknutím zobrazíte stav a předpověď počasí.

Chcete-li změnit mapu, kliknutím na zelené tlačítko se znaménkem +mapu přiblížíte, kliknutím na zelené tlačítko se znaménkem – mapu oddálíte a kliknutím na zelené šipky přejdete na sousední mapy.


METAR-TAF: